Terminal Aerodrome Forecast
Issued by NWS Charleston, WV

Current Version | Previous Version | Graphics & Text | Print | Product List | Glossary Off
Versions: 1 2 3 4 5 6 7 8 9 10 11 12 13 14 15 16 17

000
FTUS41 KRLX 272300
TAFCRW
TAF
KCRW 272325Z 2800/2824 19004KT P6SM BKN080
     FM280800 23004KT P6SM -RA OVC040
     FM281100 VRB03KT 3SM -RA BR OVC015
     FM281300 VRB03KT 2SM -RA BR OVC008
     FM282000 VRB04KT 3SM -RA BR OVC015=

USA.gov is the U.S. government's official web portal to all federal, state and local government web resources and services.